sensor_id;sensor_type;location;lat;lon;timestamp;temperature;humidity
51902;DHT22;37929;53.218;6.548;2023-07-02T00:00:06;16.40;99.90
51902;DHT22;37929;53.218;6.548;2023-07-02T00:02:33;16.40;99.90
51902;DHT22;37929;53.218;6.548;2023-07-02T00:05:00;16.40;99.90
51902;DHT22;37929;53.218;6.548;2023-07-02T00:07:26;16.40;99.90
51902;DHT22;37929;53.218;6.548;2023-07-02T00:09:52;16.40;99.90
51902;DHT22;37929;53.218;6.548;2023-07-02T00:12:18;16.30;99.90
51902;DHT22;37929;53.218;6.548;2023-07-02T00:14:44;16.30;99.90
51902;DHT22;37929;53.218;6.548;2023-07-02T00:17:10;16.30;99.90
51902;DHT22;37929;53.218;6.548;2023-07-02T00:19:39;16.20;99.90
51902;DHT22;37929;53.218;6.548;2023-07-02T00:22:10;16.30;99.90
51902;DHT22;37929;53.218;6.548;2023-07-02T00:24:36;16.20;99.90
51902;DHT22;37929;53.218;6.548;2023-07-02T00:27:02;16.10;99.90
51902;DHT22;37929;53.218;6.548;2023-07-02T00:29:28;16.10;99.90
51902;DHT22;37929;53.218;6.548;2023-07-02T00:31:54;16.10;99.90
51902;DHT22;37929;53.218;6.548;2023-07-02T00:34:20;16.10;99.90
51902;DHT22;37929;53.218;6.548;2023-07-02T00:36:46;16.00;99.90
51902;DHT22;37929;53.218;6.548;2023-07-02T00:39:12;16.10;99.90
51902;DHT22;37929;53.218;6.548;2023-07-02T00:41:38;16.00;99.90
51902;DHT22;37929;53.218;6.548;2023-07-02T00:44:04;16.00;99.90
51902;DHT22;37929;53.218;6.548;2023-07-02T00:46:31;16.00;99.90
51902;DHT22;37929;53.218;6.548;2023-07-02T00:49:01;15.90;99.90
51902;DHT22;37929;53.218;6.548;2023-07-02T00:51:30;15.90;99.90
51902;DHT22;37929;53.218;6.548;2023-07-02T00:53:57;15.90;99.90
51902;DHT22;37929;53.218;6.548;2023-07-02T00:56:24;15.80;99.90
51902;DHT22;37929;53.218;6.548;2023-07-02T00:58:53;15.80;99.90
51902;DHT22;37929;53.218;6.548;2023-07-02T01:01:21;15.80;99.90
51902;DHT22;37929;53.218;6.548;2023-07-02T01:06:40;15.80;99.90
51902;DHT22;37929;53.218;6.548;2023-07-02T01:09:07;15.70;99.90
51902;DHT22;37929;53.218;6.548;2023-07-02T01:11:33;15.60;99.90
51902;DHT22;37929;53.218;6.548;2023-07-02T01:14:05;15.60;99.90
51902;DHT22;37929;53.218;6.548;2023-07-02T01:16:34;15.60;99.90
51902;DHT22;37929;53.218;6.548;2023-07-02T01:19:05;15.60;99.90
51902;DHT22;37929;53.218;6.548;2023-07-02T01:21:33;15.60;99.90
51902;DHT22;37929;53.218;6.548;2023-07-02T01:24:00;15.60;99.90
51902;DHT22;37929;53.218;6.548;2023-07-02T01:26:33;15.60;99.90
51902;DHT22;37929;53.218;6.548;2023-07-02T01:29:12;15.60;99.90
51902;DHT22;37929;53.218;6.548;2023-07-02T01:31:38;15.50;99.90
51902;DHT22;37929;53.218;6.548;2023-07-02T01:34:04;15.50;99.90
51902;DHT22;37929;53.218;6.548;2023-07-02T01:36:33;15.50;99.90
51902;DHT22;37929;53.218;6.548;2023-07-02T01:38:59;15.50;99.90
51902;DHT22;37929;53.218;6.548;2023-07-02T01:41:25;15.50;99.90
51902;DHT22;37929;53.218;6.548;2023-07-02T01:43:51;15.50;99.90
51902;DHT22;37929;53.218;6.548;2023-07-02T01:46:16;15.50;99.90
51902;DHT22;37929;53.218;6.548;2023-07-02T01:48:42;15.50;99.90
51902;DHT22;37929;53.218;6.548;2023-07-02T01:51:08;15.50;99.90
51902;DHT22;37929;53.218;6.548;2023-07-02T01:53:34;15.40;99.90
51902;DHT22;37929;53.218;6.548;2023-07-02T01:56:00;15.40;99.90
51902;DHT22;37929;53.218;6.548;2023-07-02T01:58:25;15.40;99.90
51902;DHT22;37929;53.218;6.548;2023-07-02T02:00:51;15.40;99.90
51902;DHT22;37929;53.218;6.548;2023-07-02T02:03:17;15.40;99.90
51902;DHT22;37929;53.218;6.548;2023-07-02T02:05:43;15.30;99.90
51902;DHT22;37929;53.218;6.548;2023-07-02T02:08:09;15.30;99.90
51902;DHT22;37929;53.218;6.548;2023-07-02T02:10:35;15.20;99.90
51902;DHT22;37929;53.218;6.548;2023-07-02T02:13:01;15.20;99.90
51902;DHT22;37929;53.218;6.548;2023-07-02T02:15:27;15.20;99.90
51902;DHT22;37929;53.218;6.548;2023-07-02T02:17:53;15.10;99.90
51902;DHT22;37929;53.218;6.548;2023-07-02T02:20:18;15.10;99.90
51902;DHT22;37929;53.218;6.548;2023-07-02T02:22:44;15.10;99.90
51902;DHT22;37929;53.218;6.548;2023-07-02T02:25:10;15.10;99.90
51902;DHT22;37929;53.218;6.548;2023-07-02T02:27:36;15.10;99.90
51902;DHT22;37929;53.218;6.548;2023-07-02T02:30:02;15.10;99.90
51902;DHT22;37929;53.218;6.548;2023-07-02T02:32:27;15.00;99.90
51902;DHT22;37929;53.218;6.548;2023-07-02T02:34:55;15.00;99.90
51902;DHT22;37929;53.218;6.548;2023-07-02T02:37:21;14.90;99.90
51902;DHT22;37929;53.218;6.548;2023-07-02T02:39:49;14.90;99.90
51902;DHT22;37929;53.218;6.548;2023-07-02T02:42:15;14.90;99.90
51902;DHT22;37929;53.218;6.548;2023-07-02T02:44:41;14.80;99.90
51902;DHT22;37929;53.218;6.548;2023-07-02T02:47:06;14.80;99.90
51902;DHT22;37929;53.218;6.548;2023-07-02T02:49:32;14.80;99.90
51902;DHT22;37929;53.218;6.548;2023-07-02T02:51:58;14.80;99.90
51902;DHT22;37929;53.218;6.548;2023-07-02T02:54:24;14.80;99.90
51902;DHT22;37929;53.218;6.548;2023-07-02T02:56:49;14.80;99.90
51902;DHT22;37929;53.218;6.548;2023-07-02T02:59:15;14.70;99.90
51902;DHT22;37929;53.218;6.548;2023-07-02T03:01:41;14.70;99.90
51902;DHT22;37929;53.218;6.548;2023-07-02T03:04:07;14.70;99.90
51902;DHT22;37929;53.218;6.548;2023-07-02T03:06:34;14.60;99.90
51902;DHT22;37929;53.218;6.548;2023-07-02T03:09:00;14.60;99.90
51902;DHT22;37929;53.218;6.548;2023-07-02T03:11:25;14.60;99.90
51902;DHT22;37929;53.218;6.548;2023-07-02T03:13:51;14.60;99.90
51902;DHT22;37929;53.218;6.548;2023-07-02T03:16:17;14.50;99.90
51902;DHT22;37929;53.218;6.548;2023-07-02T03:18:43;14.50;99.90
51902;DHT22;37929;53.218;6.548;2023-07-02T03:21:09;14.30;99.90
51902;DHT22;37929;53.218;6.548;2023-07-02T03:23:35;14.50;99.90
51902;DHT22;37929;53.218;6.548;2023-07-02T03:26:01;14.50;99.90
51902;DHT22;37929;53.218;6.548;2023-07-02T03:28:27;14.50;99.90
51902;DHT22;37929;53.218;6.548;2023-07-02T03:30:53;14.50;99.90
51902;DHT22;37929;53.218;6.548;2023-07-02T03:33:19;14.50;99.90
51902;DHT22;37929;53.218;6.548;2023-07-02T03:35:44;14.40;99.90
51902;DHT22;37929;53.218;6.548;2023-07-02T03:38:10;14.40;99.90
51902;DHT22;37929;53.218;6.548;2023-07-02T03:40:36;14.40;99.90
51902;DHT22;37929;53.218;6.548;2023-07-02T03:43:02;14.50;99.90
51902;DHT22;37929;53.218;6.548;2023-07-02T03:45:27;14.50;99.90
51902;DHT22;37929;53.218;6.548;2023-07-02T03:47:53;14.50;99.90
51902;DHT22;37929;53.218;6.548;2023-07-02T03:50:19;14.50;99.90
51902;DHT22;37929;53.218;6.548;2023-07-02T03:52:45;14.50;99.90
51902;DHT22;37929;53.218;6.548;2023-07-02T03:55:11;14.50;99.90
51902;DHT22;37929;53.218;6.548;2023-07-02T03:57:37;14.50;99.90
51902;DHT22;37929;53.218;6.548;2023-07-02T04:00:03;14.50;99.90
51902;DHT22;37929;53.218;6.548;2023-07-02T04:02:30;14.50;99.90
51902;DHT22;37929;53.218;6.548;2023-07-02T04:04:56;14.50;99.90
51902;DHT22;37929;53.218;6.548;2023-07-02T04:07:22;14.50;99.90
51902;DHT22;37929;53.218;6.548;2023-07-02T04:09:48;14.50;99.90
51902;DHT22;37929;53.218;6.548;2023-07-02T04:12:13;14.50;99.90
51902;DHT22;37929;53.218;6.548;2023-07-02T04:14:39;14.60;99.90
51902;DHT22;37929;53.218;6.548;2023-07-02T04:17:05;14.60;99.90
51902;DHT22;37929;53.218;6.548;2023-07-02T04:19:31;14.60;99.90
51902;DHT22;37929;53.218;6.548;2023-07-02T04:21:57;14.60;99.90
51902;DHT22;37929;53.218;6.548;2023-07-02T04:24:22;14.70;99.90
51902;DHT22;37929;53.218;6.548;2023-07-02T04:26:48;14.70;99.90
51902;DHT22;37929;53.218;6.548;2023-07-02T04:29:14;14.70;99.90
51902;DHT22;37929;53.218;6.548;2023-07-02T04:31:40;14.70;99.90
51902;DHT22;37929;53.218;6.548;2023-07-02T04:34:06;14.70;99.90
51902;DHT22;37929;53.218;6.548;2023-07-02T04:36:31;14.80;99.90
51902;DHT22;37929;53.218;6.548;2023-07-02T04:38:57;14.90;99.90
51902;DHT22;37929;53.218;6.548;2023-07-02T04:41:23;14.80;99.90
51902;DHT22;37929;53.218;6.548;2023-07-02T04:43:49;14.80;99.90
51902;DHT22;37929;53.218;6.548;2023-07-02T04:46:15;14.80;99.90
51902;DHT22;37929;53.218;6.548;2023-07-02T04:48:43;14.80;99.90
51902;DHT22;37929;53.218;6.548;2023-07-02T04:51:09;14.90;99.90
51902;DHT22;37929;53.218;6.548;2023-07-02T04:53:34;14.90;99.90
51902;DHT22;37929;53.218;6.548;2023-07-02T04:56:00;14.90;99.90
51902;DHT22;37929;53.218;6.548;2023-07-02T04:58:27;14.90;99.90
51902;DHT22;37929;53.218;6.548;2023-07-02T05:00:52;14.90;99.90
51902;DHT22;37929;53.218;6.548;2023-07-02T05:03:18;15.00;99.90
51902;DHT22;37929;53.218;6.548;2023-07-02T05:05:44;15.10;99.90
51902;DHT22;37929;53.218;6.548;2023-07-02T05:08:10;15.10;99.90
51902;DHT22;37929;53.218;6.548;2023-07-02T05:10:36;15.10;99.90
51902;DHT22;37929;53.218;6.548;2023-07-02T05:13:02;15.20;99.90
51902;DHT22;37929;53.218;6.548;2023-07-02T05:15:27;15.20;99.90
51902;DHT22;37929;53.218;6.548;2023-07-02T05:17:53;15.30;99.90
51902;DHT22;37929;53.218;6.548;2023-07-02T05:20:19;15.40;99.90
51902;DHT22;37929;53.218;6.548;2023-07-02T05:22:45;15.40;99.90
51902;DHT22;37929;53.218;6.548;2023-07-02T05:25:11;15.50;99.90
51902;DHT22;37929;53.218;6.548;2023-07-02T05:27:36;15.50;99.90
51902;DHT22;37929;53.218;6.548;2023-07-02T05:30:02;15.50;99.90
51902;DHT22;37929;53.218;6.548;2023-07-02T05:32:28;15.50;99.90
51902;DHT22;37929;53.218;6.548;2023-07-02T05:34:54;15.50;99.90
51902;DHT22;37929;53.218;6.548;2023-07-02T05:37:19;15.50;99.90
51902;DHT22;37929;53.218;6.548;2023-07-02T05:39:45;15.50;99.90
51902;DHT22;37929;53.218;6.548;2023-07-02T05:42:11;15.50;99.90
51902;DHT22;37929;53.218;6.548;2023-07-02T05:44:37;15.50;99.90
51902;DHT22;37929;53.218;6.548;2023-07-02T05:47:03;15.50;99.90
51902;DHT22;37929;53.218;6.548;2023-07-02T05:49:31;15.60;99.90
51902;DHT22;37929;53.218;6.548;2023-07-02T05:51:56;15.60;99.90
51902;DHT22;37929;53.218;6.548;2023-07-02T05:54:22;15.70;99.90
51902;DHT22;37929;53.218;6.548;2023-07-02T05:56:48;15.70;99.90
51902;DHT22;37929;53.218;6.548;2023-07-02T05:59:14;15.80;99.90
51902;DHT22;37929;53.218;6.548;2023-07-02T06:01:43;15.80;99.90
51902;DHT22;37929;53.218;6.548;2023-07-02T06:04:09;15.80;99.90
51902;DHT22;37929;53.218;6.548;2023-07-02T06:06:35;15.90;99.90
51902;DHT22;37929;53.218;6.548;2023-07-02T06:11:51;15.90;99.90
51902;DHT22;37929;53.218;6.548;2023-07-02T06:14:17;16.00;99.90
51902;DHT22;37929;53.218;6.548;2023-07-02T06:16:43;16.00;99.90
51902;DHT22;37929;53.218;6.548;2023-07-02T06:19:09;15.90;99.90
51902;DHT22;37929;53.218;6.548;2023-07-02T06:21:36;16.00;99.90
51902;DHT22;37929;53.218;6.548;2023-07-02T06:24:02;16.00;99.90
51902;DHT22;37929;53.218;6.548;2023-07-02T06:26:30;16.00;99.90
51902;DHT22;37929;53.218;6.548;2023-07-02T06:28:57;16.00;99.90
51902;DHT22;37929;53.218;6.548;2023-07-02T06:31:24;16.10;99.90
51902;DHT22;37929;53.218;6.548;2023-07-02T06:33:49;16.10;99.90
51902;DHT22;37929;53.218;6.548;2023-07-02T06:36:15;16.20;99.90
51902;DHT22;37929;53.218;6.548;2023-07-02T06:38:46;16.20;99.90
51902;DHT22;37929;53.218;6.548;2023-07-02T06:41:12;16.30;99.90
51902;DHT22;37929;53.218;6.548;2023-07-02T06:43:38;16.30;99.90
51902;DHT22;37929;53.218;6.548;2023-07-02T06:46:04;16.40;99.90
51902;DHT22;37929;53.218;6.548;2023-07-02T06:48:30;16.30;99.90
51902;DHT22;37929;53.218;6.548;2023-07-02T06:51:02;16.30;99.90
51902;DHT22;37929;53.218;6.548;2023-07-02T06:53:28;16.30;99.90
51902;DHT22;37929;53.218;6.548;2023-07-02T06:55:57;16.30;99.90
51902;DHT22;37929;53.218;6.548;2023-07-02T06:58:23;16.30;99.90
51902;DHT22;37929;53.218;6.548;2023-07-02T07:00:50;16.40;99.90
51902;DHT22;37929;53.218;6.548;2023-07-02T07:03:24;16.40;99.90
51902;DHT22;37929;53.218;6.548;2023-07-02T07:05:50;16.40;99.90
51902;DHT22;37929;53.218;6.548;2023-07-02T07:08:16;16.40;99.90
51902;DHT22;37929;53.218;6.548;2023-07-02T07:10:41;16.50;99.90
51902;DHT22;37929;53.218;6.548;2023-07-02T07:13:07;16.50;99.90
51902;DHT22;37929;53.218;6.548;2023-07-02T07:15:34;16.60;99.90
51902;DHT22;37929;53.218;6.548;2023-07-02T07:18:03;16.60;99.90
51902;DHT22;37929;53.218;6.548;2023-07-02T07:20:29;16.60;99.90
51902;DHT22;37929;53.218;6.548;2023-07-02T07:22:58;16.60;99.90
51902;DHT22;37929;53.218;6.548;2023-07-02T07:25:25;16.60;99.90
51902;DHT22;37929;53.218;6.548;2023-07-02T07:27:51;16.70;99.90
51902;DHT22;37929;53.218;6.548;2023-07-02T07:30:17;16.70;99.90
51902;DHT22;37929;53.218;6.548;2023-07-02T07:32:49;16.80;99.90
51902;DHT22;37929;53.218;6.548;2023-07-02T07:35:15;16.90;99.90
51902;DHT22;37929;53.218;6.548;2023-07-02T07:37:41;17.00;99.90
51902;DHT22;37929;53.218;6.548;2023-07-02T07:40:07;16.90;99.90
51902;DHT22;37929;53.218;6.548;2023-07-02T07:42:33;16.90;99.90
51902;DHT22;37929;53.218;6.548;2023-07-02T07:45:03;16.90;99.90
51902;DHT22;37929;53.218;6.548;2023-07-02T07:47:29;17.00;99.90
51902;DHT22;37929;53.218;6.548;2023-07-02T07:49:56;17.00;99.90
51902;DHT22;37929;53.218;6.548;2023-07-02T07:52:21;17.10;99.90
51902;DHT22;37929;53.218;6.548;2023-07-02T07:54:47;17.10;99.90
51902;DHT22;37929;53.218;6.548;2023-07-02T07:57:14;17.20;99.90
51902;DHT22;37929;53.218;6.548;2023-07-02T07:59:40;17.20;99.90
51902;DHT22;37929;53.218;6.548;2023-07-02T08:02:06;17.30;99.90
51902;DHT22;37929;53.218;6.548;2023-07-02T08:04:32;17.30;99.90
51902;DHT22;37929;53.218;6.548;2023-07-02T08:06:58;17.30;99.90
51902;DHT22;37929;53.218;6.548;2023-07-02T08:09:24;17.40;99.90
51902;DHT22;37929;53.218;6.548;2023-07-02T08:11:50;17.50;99.90
51902;DHT22;37929;53.218;6.548;2023-07-02T08:14:17;17.50;99.90
51902;DHT22;37929;53.218;6.548;2023-07-02T08:16:45;17.50;99.90
51902;DHT22;37929;53.218;6.548;2023-07-02T08:19:11;17.40;99.90
51902;DHT22;37929;53.218;6.548;2023-07-02T08:21:37;17.30;99.90
51902;DHT22;37929;53.218;6.548;2023-07-02T08:24:03;17.20;99.90
51902;DHT22;37929;53.218;6.548;2023-07-02T08:26:30;17.10;99.90
51902;DHT22;37929;53.218;6.548;2023-07-02T08:28:59;17.00;99.90
51902;DHT22;37929;53.218;6.548;2023-07-02T08:31:31;16.90;99.90
51902;DHT22;37929;53.218;6.548;2023-07-02T08:34:00;16.80;99.90
51902;DHT22;37929;53.218;6.548;2023-07-02T08:36:29;16.80;99.90
51902;DHT22;37929;53.218;6.548;2023-07-02T08:38:58;16.50;99.90
51902;DHT22;37929;53.218;6.548;2023-07-02T08:41:23;16.30;99.90
51902;DHT22;37929;53.218;6.548;2023-07-02T08:43:50;16.20;99.90
51902;DHT22;37929;53.218;6.548;2023-07-02T08:46:17;16.20;99.90
51902;DHT22;37929;53.218;6.548;2023-07-02T08:48:43;16.30;99.90
51902;DHT22;37929;53.218;6.548;2023-07-02T08:51:09;16.50;99.90
51902;DHT22;37929;53.218;6.548;2023-07-02T08:53:35;16.80;99.90
51902;DHT22;37929;53.218;6.548;2023-07-02T08:56:02;17.00;99.90
51902;DHT22;37929;53.218;6.548;2023-07-02T08:58:28;17.20;99.90
51902;DHT22;37929;53.218;6.548;2023-07-02T09:01:14;17.30;99.90
51902;DHT22;37929;53.218;6.548;2023-07-02T09:03:41;17.40;99.90
51902;DHT22;37929;53.218;6.548;2023-07-02T09:06:08;17.50;99.90
51902;DHT22;37929;53.218;6.548;2023-07-02T09:08:34;17.50;99.90
51902;DHT22;37929;53.218;6.548;2023-07-02T09:11:09;17.50;99.90
51902;DHT22;37929;53.218;6.548;2023-07-02T09:13:52;17.60;99.90
51902;DHT22;37929;53.218;6.548;2023-07-02T09:16:42;17.80;99.90
51902;DHT22;37929;53.218;6.548;2023-07-02T09:19:08;17.80;99.90
51902;DHT22;37929;53.218;6.548;2023-07-02T09:21:45;17.80;99.90
51902;DHT22;37929;53.218;6.548;2023-07-02T09:24:16;17.80;99.90
51902;DHT22;37929;53.218;6.548;2023-07-02T09:29:12;17.60;99.90
51902;DHT22;37929;53.218;6.548;2023-07-02T09:31:46;17.60;99.90
51902;DHT22;37929;53.218;6.548;2023-07-02T09:34:12;17.70;99.90
51902;DHT22;37929;53.218;6.548;2023-07-02T09:36:39;17.80;99.90
51902;DHT22;37929;53.218;6.548;2023-07-02T09:39:12;17.80;99.90
51902;DHT22;37929;53.218;6.548;2023-07-02T09:41:41;18.00;99.90
51902;DHT22;37929;53.218;6.548;2023-07-02T09:44:09;18.10;99.90
51902;DHT22;37929;53.218;6.548;2023-07-02T09:46:44;18.20;99.90
51902;DHT22;37929;53.218;6.548;2023-07-02T09:49:14;18.30;99.90
51902;DHT22;37929;53.218;6.548;2023-07-02T09:51:42;18.40;99.90
51902;DHT22;37929;53.218;6.548;2023-07-02T09:54:10;18.60;99.90
51902;DHT22;37929;53.218;6.548;2023-07-02T09:56:36;18.40;99.90
51902;DHT22;37929;53.218;6.548;2023-07-02T09:59:01;18.40;99.90
51902;DHT22;37929;53.218;6.548;2023-07-02T10:01:27;18.30;99.90
51902;DHT22;37929;53.218;6.548;2023-07-02T10:03:53;18.30;99.90
51902;DHT22;37929;53.218;6.548;2023-07-02T10:06:19;18.40;99.90
51902;DHT22;37929;53.218;6.548;2023-07-02T10:08:55;18.30;99.90
51902;DHT22;37929;53.218;6.548;2023-07-02T10:11:32;18.30;99.90
51902;DHT22;37929;53.218;6.548;2023-07-02T10:14:00;18.30;99.90
51902;DHT22;37929;53.218;6.548;2023-07-02T10:16:26;18.20;99.90
51902;DHT22;37929;53.218;6.548;2023-07-02T10:18:53;18.10;99.90
51902;DHT22;37929;53.218;6.548;2023-07-02T10:21:25;18.20;99.90
51902;DHT22;37929;53.218;6.548;2023-07-02T10:23:50;18.30;99.90
51902;DHT22;37929;53.218;6.548;2023-07-02T10:26:19;18.30;99.90
51902;DHT22;37929;53.218;6.548;2023-07-02T10:28:56;18.30;99.90
51902;DHT22;37929;53.218;6.548;2023-07-02T10:31:22;18.50;99.90
51902;DHT22;37929;53.218;6.548;2023-07-02T10:33:48;18.70;99.90
51902;DHT22;37929;53.218;6.548;2023-07-02T10:36:21;18.60;99.90
51902;DHT22;37929;53.218;6.548;2023-07-02T10:38:49;18.60;99.90
51902;DHT22;37929;53.218;6.548;2023-07-02T10:41:27;18.70;99.90
51902;DHT22;37929;53.218;6.548;2023-07-02T10:44:04;18.80;99.90
51902;DHT22;37929;53.218;6.548;2023-07-02T10:46:30;18.70;99.90
51902;DHT22;37929;53.218;6.548;2023-07-02T10:48:56;18.80;99.90
51902;DHT22;37929;53.218;6.548;2023-07-02T10:51:23;18.90;99.90
51902;DHT22;37929;53.218;6.548;2023-07-02T10:53:59;19.00;99.90
51902;DHT22;37929;53.218;6.548;2023-07-02T10:56:26;19.20;99.90
51902;DHT22;37929;53.218;6.548;2023-07-02T10:58:53;19.20;99.90
51902;DHT22;37929;53.218;6.548;2023-07-02T11:01:27;19.20;99.90
51902;DHT22;37929;53.218;6.548;2023-07-02T11:04:04;19.20;99.90
51902;DHT22;37929;53.218;6.548;2023-07-02T11:06:32;19.10;99.90
51902;DHT22;37929;53.218;6.548;2023-07-02T11:08:59;19.00;99.90
51902;DHT22;37929;53.218;6.548;2023-07-02T11:11:25;18.80;99.90
51902;DHT22;37929;53.218;6.548;2023-07-02T11:13:52;18.90;99.90
51902;DHT22;37929;53.218;6.548;2023-07-02T11:16:28;18.90;99.90
51902;DHT22;37929;53.218;6.548;2023-07-02T11:19:08;18.90;99.90
51902;DHT22;37929;53.218;6.548;2023-07-02T11:21:35;18.90;99.90
51902;DHT22;37929;53.218;6.548;2023-07-02T11:24:06;18.90;99.90
51902;DHT22;37929;53.218;6.548;2023-07-02T11:26:39;18.80;99.90
51902;DHT22;37929;53.218;6.548;2023-07-02T11:29:11;18.80;99.90
51902;DHT22;37929;53.218;6.548;2023-07-02T11:31:37;18.90;99.90
51902;DHT22;37929;53.218;6.548;2023-07-02T11:34:14;19.00;99.90
51902;DHT22;37929;53.218;6.548;2023-07-02T11:36:39;19.10;99.90
51902;DHT22;37929;53.218;6.548;2023-07-02T11:39:05;19.20;99.90
51902;DHT22;37929;53.218;6.548;2023-07-02T11:41:39;19.20;99.90
51902;DHT22;37929;53.218;6.548;2023-07-02T11:44:05;19.20;99.90
51902;DHT22;37929;53.218;6.548;2023-07-02T11:46:31;19.20;99.90
51902;DHT22;37929;53.218;6.548;2023-07-02T11:48:57;19.30;99.90
51902;DHT22;37929;53.218;6.548;2023-07-02T11:51:23;19.20;99.90
51902;DHT22;37929;53.218;6.548;2023-07-02T11:53:48;19.20;99.90
51902;DHT22;37929;53.218;6.548;2023-07-02T11:56:14;19.10;99.90
51902;DHT22;37929;53.218;6.548;2023-07-02T11:58:41;19.00;99.90
51902;DHT22;37929;53.218;6.548;2023-07-02T12:01:07;18.90;99.90
51902;DHT22;37929;53.218;6.548;2023-07-02T12:03:33;18.90;99.90
51902;DHT22;37929;53.218;6.548;2023-07-02T12:05:59;18.90;99.90
51902;DHT22;37929;53.218;6.548;2023-07-02T12:08:26;19.00;99.90
51902;DHT22;37929;53.218;6.548;2023-07-02T12:10:51;19.10;99.90
51902;DHT22;37929;53.218;6.548;2023-07-02T12:13:17;19.10;99.90
51902;DHT22;37929;53.218;6.548;2023-07-02T12:15:43;19.10;99.90
51902;DHT22;37929;53.218;6.548;2023-07-02T12:18:09;19.10;99.90
51902;DHT22;37929;53.218;6.548;2023-07-02T12:20:45;19.00;99.90
51902;DHT22;37929;53.218;6.548;2023-07-02T12:23:11;18.90;99.90
51902;DHT22;37929;53.218;6.548;2023-07-02T12:25:38;18.90;99.90
51902;DHT22;37929;53.218;6.548;2023-07-02T12:28:04;18.80;99.90
51902;DHT22;37929;53.218;6.548;2023-07-02T12:30:31;18.70;99.90
51902;DHT22;37929;53.218;6.548;2023-07-02T12:32:57;18.80;99.90
51902;DHT22;37929;53.218;6.548;2023-07-02T12:35:23;18.80;99.90
51902;DHT22;37929;53.218;6.548;2023-07-02T12:37:50;18.90;99.90
51902;DHT22;37929;53.218;6.548;2023-07-02T12:40:19;18.90;99.90
51902;DHT22;37929;53.218;6.548;2023-07-02T12:42:46;18.80;99.90
51902;DHT22;37929;53.218;6.548;2023-07-02T12:45:14;18.80;99.90
51902;DHT22;37929;53.218;6.548;2023-07-02T12:47:41;18.80;99.90
51902;DHT22;37929;53.218;6.548;2023-07-02T12:50:08;18.70;99.90
51902;DHT22;37929;53.218;6.548;2023-07-02T12:52:34;18.70;99.90
51902;DHT22;37929;53.218;6.548;2023-07-02T12:55:00;18.90;99.90
51902;DHT22;37929;53.218;6.548;2023-07-02T12:57:26;19.00;99.90
51902;DHT22;37929;53.218;6.548;2023-07-02T12:59:53;18.90;99.90
51902;DHT22;37929;53.218;6.548;2023-07-02T13:02:20;18.80;99.90
51902;DHT22;37929;53.218;6.548;2023-07-02T13:04:46;18.80;99.90
51902;DHT22;37929;53.218;6.548;2023-07-02T13:07:12;18.70;99.90
51902;DHT22;37929;53.218;6.548;2023-07-02T13:09:38;18.70;99.90
51902;DHT22;37929;53.218;6.548;2023-07-02T13:12:07;18.70;99.90
51902;DHT22;37929;53.218;6.548;2023-07-02T13:14:34;18.80;99.90
51902;DHT22;37929;53.218;6.548;2023-07-02T13:17:00;18.90;99.90
51902;DHT22;37929;53.218;6.548;2023-07-02T13:19:28;18.80;99.90
51902;DHT22;37929;53.218;6.548;2023-07-02T13:21:54;18.70;99.90
51902;DHT22;37929;53.218;6.548;2023-07-02T13:24:20;18.70;99.90
51902;DHT22;37929;53.218;6.548;2023-07-02T13:26:45;18.70;99.90
51902;DHT22;37929;53.218;6.548;2023-07-02T13:29:11;18.70;99.90
51902;DHT22;37929;53.218;6.548;2023-07-02T13:31:37;18.70;99.90
51902;DHT22;37929;53.218;6.548;2023-07-02T13:34:04;18.70;99.90
51902;DHT22;37929;53.218;6.548;2023-07-02T13:36:30;18.70;99.90
51902;DHT22;37929;53.218;6.548;2023-07-02T13:38:56;18.60;99.90
51902;DHT22;37929;53.218;6.548;2023-07-02T13:41:22;18.50;99.90
51902;DHT22;37929;53.218;6.548;2023-07-02T13:43:48;18.40;99.90
51902;DHT22;37929;53.218;6.548;2023-07-02T13:46:14;18.40;99.90
51902;DHT22;37929;53.218;6.548;2023-07-02T13:48:40;18.40;99.90
51902;DHT22;37929;53.218;6.548;2023-07-02T13:51:06;18.50;99.90
51902;DHT22;37929;53.218;6.548;2023-07-02T13:53:34;18.40;99.90
51902;DHT22;37929;53.218;6.548;2023-07-02T13:56:00;18.40;99.90
51902;DHT22;37929;53.218;6.548;2023-07-02T13:58:25;18.40;99.90
51902;DHT22;37929;53.218;6.548;2023-07-02T14:00:51;18.40;99.90
51902;DHT22;37929;53.218;6.548;2023-07-02T14:03:17;18.30;99.90
51902;DHT22;37929;53.218;6.548;2023-07-02T14:05:43;18.30;99.90
51902;DHT22;37929;53.218;6.548;2023-07-02T14:08:09;18.20;99.90
51902;DHT22;37929;53.218;6.548;2023-07-02T14:10:35;18.30;99.90
51902;DHT22;37929;53.218;6.548;2023-07-02T14:13:01;18.20;99.90
51902;DHT22;37929;53.218;6.548;2023-07-02T14:15:27;18.20;99.90
51902;DHT22;37929;53.218;6.548;2023-07-02T14:17:53;18.20;99.90
51902;DHT22;37929;53.218;6.548;2023-07-02T14:20:20;18.10;99.90
51902;DHT22;37929;53.218;6.548;2023-07-02T14:22:46;18.00;99.90
51902;DHT22;37929;53.218;6.548;2023-07-02T14:25:12;18.00;99.90
51902;DHT22;37929;53.218;6.548;2023-07-02T14:27:38;18.00;99.90
51902;DHT22;37929;53.218;6.548;2023-07-02T14:30:06;17.90;99.90
51902;DHT22;37929;53.218;6.548;2023-07-02T14:32:34;17.90;99.90
51902;DHT22;37929;53.218;6.548;2023-07-02T14:35:03;17.80;99.90
51902;DHT22;37929;53.218;6.548;2023-07-02T14:37:29;17.80;99.90
51902;DHT22;37929;53.218;6.548;2023-07-02T14:39:58;17.70;99.90
51902;DHT22;37929;53.218;6.548;2023-07-02T14:42:25;17.60;99.90
51902;DHT22;37929;53.218;6.548;2023-07-02T14:44:50;17.50;99.90
51902;DHT22;37929;53.218;6.548;2023-07-02T14:47:16;17.40;99.90
51902;DHT22;37929;53.218;6.548;2023-07-02T14:49:42;17.50;99.90
51902;DHT22;37929;53.218;6.548;2023-07-02T14:52:08;17.60;99.90
51902;DHT22;37929;53.218;6.548;2023-07-02T14:54:34;17.70;99.90
51902;DHT22;37929;53.218;6.548;2023-07-02T14:57:00;17.80;99.90
51902;DHT22;37929;53.218;6.548;2023-07-02T14:59:26;17.70;99.90
51902;DHT22;37929;53.218;6.548;2023-07-02T15:01:52;17.80;99.90
51902;DHT22;37929;53.218;6.548;2023-07-02T15:04:17;17.80;99.90
51902;DHT22;37929;53.218;6.548;2023-07-02T15:06:43;17.80;99.90
51902;DHT22;37929;53.218;6.548;2023-07-02T15:09:09;18.00;99.90
51902;DHT22;37929;53.218;6.548;2023-07-02T15:11:35;18.20;99.90
51902;DHT22;37929;53.218;6.548;2023-07-02T15:14:01;18.30;99.90
51902;DHT22;37929;53.218;6.548;2023-07-02T15:16:26;18.50;99.90
51902;DHT22;37929;53.218;6.548;2023-07-02T15:18:52;18.50;99.90
51902;DHT22;37929;53.218;6.548;2023-07-02T15:21:19;18.50;99.90
51902;DHT22;37929;53.218;6.548;2023-07-02T15:23:45;18.40;99.90
51902;DHT22;37929;53.218;6.548;2023-07-02T15:26:10;18.40;99.90
51902;DHT22;37929;53.218;6.548;2023-07-02T15:28:36;18.30;99.90
51902;DHT22;37929;53.218;6.548;2023-07-02T15:31:05;18.30;99.90
51902;DHT22;37929;53.218;6.548;2023-07-02T15:33:32;18.30;99.90
51902;DHT22;37929;53.218;6.548;2023-07-02T15:36:00;18.30;99.90